sensor_id;sensor_type;location;lat;lon;timestamp;P1;durP1;ratioP1;P2;durP2;ratioP2
24681;SDS011;12802;53.390;-2.328;2024-03-06T00:01:33;26.08;;;12.80;;
24681;SDS011;12802;53.390;-2.328;2024-03-06T00:03:59;24.05;;;12.85;;
24681;SDS011;12802;53.390;-2.328;2024-03-06T00:06:25;24.98;;;12.60;;
24681;SDS011;12802;53.390;-2.328;2024-03-06T00:08:51;28.65;;;13.23;;
24681;SDS011;12802;53.390;-2.328;2024-03-06T00:11:17;29.42;;;13.45;;
24681;SDS011;12802;53.390;-2.328;2024-03-06T00:13:43;25.02;;;12.40;;
24681;SDS011;12802;53.390;-2.328;2024-03-06T00:16:12;33.15;;;14.85;;
24681;SDS011;12802;53.390;-2.328;2024-03-06T00:18:38;33.10;;;15.25;;
24681;SDS011;12802;53.390;-2.328;2024-03-06T00:21:05;26.15;;;14.32;;
24681;SDS011;12802;53.390;-2.328;2024-03-06T00:23:32;33.63;;;16.80;;
24681;SDS011;12802;53.390;-2.328;2024-03-06T00:25:58;31.90;;;16.08;;
24681;SDS011;12802;53.390;-2.328;2024-03-06T00:28:24;32.63;;;16.52;;
24681;SDS011;12802;53.390;-2.328;2024-03-06T00:30:50;35.42;;;16.73;;
24681;SDS011;12802;53.390;-2.328;2024-03-06T00:33:16;32.55;;;15.48;;
24681;SDS011;12802;53.390;-2.328;2024-03-06T00:35:42;27.90;;;15.82;;
24681;SDS011;12802;53.390;-2.328;2024-03-06T00:38:08;31.60;;;15.75;;
24681;SDS011;12802;53.390;-2.328;2024-03-06T00:40:34;30.23;;;15.60;;
24681;SDS011;12802;53.390;-2.328;2024-03-06T00:43:00;25.48;;;14.23;;
24681;SDS011;12802;53.390;-2.328;2024-03-06T00:45:27;30.08;;;14.70;;
24681;SDS011;12802;53.390;-2.328;2024-03-06T00:47:53;34.08;;;14.75;;
24681;SDS011;12802;53.390;-2.328;2024-03-06T00:50:19;30.48;;;16.35;;
24681;SDS011;12802;53.390;-2.328;2024-03-06T00:52:47;30.55;;;15.90;;
24681;SDS011;12802;53.390;-2.328;2024-03-06T00:55:13;30.75;;;15.88;;
24681;SDS011;12802;53.390;-2.328;2024-03-06T00:57:40;27.67;;;15.07;;
24681;SDS011;12802;53.390;-2.328;2024-03-06T01:00:06;25.50;;;14.05;;
24681;SDS011;12802;53.390;-2.328;2024-03-06T01:02:39;24.63;;;11.40;;
24681;SDS011;12802;53.390;-2.328;2024-03-06T01:05:05;25.85;;;11.43;;
24681;SDS011;12802;53.390;-2.328;2024-03-06T01:07:32;24.63;;;12.23;;
24681;SDS011;12802;53.390;-2.328;2024-03-06T01:09:59;25.92;;;12.73;;
24681;SDS011;12802;53.390;-2.328;2024-03-06T01:12:29;27.85;;;13.65;;
24681;SDS011;12802;53.390;-2.328;2024-03-06T01:14:55;23.50;;;13.77;;
24681;SDS011;12802;53.390;-2.328;2024-03-06T01:17:21;31.73;;;14.75;;
24681;SDS011;12802;53.390;-2.328;2024-03-06T01:19:48;27.83;;;15.77;;
24681;SDS011;12802;53.390;-2.328;2024-03-06T01:22:14;27.23;;;15.15;;
24681;SDS011;12802;53.390;-2.328;2024-03-06T01:24:40;32.20;;;16.95;;
24681;SDS011;12802;53.390;-2.328;2024-03-06T01:27:06;29.42;;;16.70;;
24681;SDS011;12802;53.390;-2.328;2024-03-06T01:29:32;28.38;;;16.80;;
24681;SDS011;12802;53.390;-2.328;2024-03-06T01:31:58;27.92;;;15.07;;
24681;SDS011;12802;53.390;-2.328;2024-03-06T01:34:25;26.20;;;15.35;;
24681;SDS011;12802;53.390;-2.328;2024-03-06T01:36:51;25.83;;;14.63;;
24681;SDS011;12802;53.390;-2.328;2024-03-06T01:39:18;22.08;;;12.75;;
24681;SDS011;12802;53.390;-2.328;2024-03-06T01:41:45;26.80;;;15.23;;
24681;SDS011;12802;53.390;-2.328;2024-03-06T01:44:11;26.10;;;14.05;;
24681;SDS011;12802;53.390;-2.328;2024-03-06T01:46:38;25.73;;;13.23;;
24681;SDS011;12802;53.390;-2.328;2024-03-06T01:49:04;32.55;;;14.68;;
24681;SDS011;12802;53.390;-2.328;2024-03-06T01:51:30;27.60;;;13.20;;
24681;SDS011;12802;53.390;-2.328;2024-03-06T01:53:57;25.38;;;15.07;;
24681;SDS011;12802;53.390;-2.328;2024-03-06T01:56:23;30.73;;;14.95;;
24681;SDS011;12802;53.390;-2.328;2024-03-06T01:58:50;23.25;;;14.20;;
24681;SDS011;12802;53.390;-2.328;2024-03-06T02:01:16;25.13;;;15.75;;
24681;SDS011;12802;53.390;-2.328;2024-03-06T02:03:43;29.85;;;16.55;;
24681;SDS011;12802;53.390;-2.328;2024-03-06T02:06:09;26.35;;;14.60;;
24681;SDS011;12802;53.390;-2.328;2024-03-06T02:08:36;29.92;;;15.25;;
24681;SDS011;12802;53.390;-2.328;2024-03-06T02:11:02;23.50;;;14.32;;
24681;SDS011;12802;53.390;-2.328;2024-03-06T02:13:29;27.10;;;14.73;;
24681;SDS011;12802;53.390;-2.328;2024-03-06T02:15:55;31.05;;;16.95;;
24681;SDS011;12802;53.390;-2.328;2024-03-06T02:18:22;25.60;;;15.80;;
24681;SDS011;12802;53.390;-2.328;2024-03-06T02:20:48;30.98;;;18.83;;
24681;SDS011;12802;53.390;-2.328;2024-03-06T02:23:15;31.05;;;16.52;;
24681;SDS011;12802;53.390;-2.328;2024-03-06T02:25:44;36.17;;;18.85;;
24681;SDS011;12802;53.390;-2.328;2024-03-06T02:28:12;26.20;;;14.13;;
24681;SDS011;12802;53.390;-2.328;2024-03-06T02:30:38;29.45;;;15.90;;
24681;SDS011;12802;53.390;-2.328;2024-03-06T02:33:05;33.03;;;16.95;;
24681;SDS011;12802;53.390;-2.328;2024-03-06T02:35:31;27.38;;;16.95;;
24681;SDS011;12802;53.390;-2.328;2024-03-06T02:38:01;25.85;;;15.10;;
24681;SDS011;12802;53.390;-2.328;2024-03-06T02:40:28;27.70;;;14.55;;
24681;SDS011;12802;53.390;-2.328;2024-03-06T02:42:54;28.40;;;14.73;;
24681;SDS011;12802;53.390;-2.328;2024-03-06T02:45:20;37.42;;;16.33;;
24681;SDS011;12802;53.390;-2.328;2024-03-06T02:47:46;30.63;;;15.68;;
24681;SDS011;12802;53.390;-2.328;2024-03-06T02:50:13;27.65;;;14.82;;
24681;SDS011;12802;53.390;-2.328;2024-03-06T02:52:39;34.72;;;17.75;;
24681;SDS011;12802;53.390;-2.328;2024-03-06T02:55:05;29.02;;;17.23;;
24681;SDS011;12802;53.390;-2.328;2024-03-06T02:57:32;33.67;;;17.30;;
24681;SDS011;12802;53.390;-2.328;2024-03-06T02:59:58;26.25;;;16.27;;
24681;SDS011;12802;53.390;-2.328;2024-03-06T03:02:24;27.88;;;16.60;;
24681;SDS011;12802;53.390;-2.328;2024-03-06T03:04:51;30.60;;;17.33;;
24681;SDS011;12802;53.390;-2.328;2024-03-06T03:07:18;35.33;;;18.50;;
24681;SDS011;12802;53.390;-2.328;2024-03-06T03:09:45;37.38;;;18.38;;
24681;SDS011;12802;53.390;-2.328;2024-03-06T03:12:11;33.20;;;18.48;;
24681;SDS011;12802;53.390;-2.328;2024-03-06T03:14:37;36.63;;;18.95;;
24681;SDS011;12802;53.390;-2.328;2024-03-06T03:17:03;32.95;;;18.42;;
24681;SDS011;12802;53.390;-2.328;2024-03-06T03:19:30;37.28;;;20.02;;
24681;SDS011;12802;53.390;-2.328;2024-03-06T03:21:57;32.88;;;17.40;;
24681;SDS011;12802;53.390;-2.328;2024-03-06T03:24:23;30.00;;;18.33;;
24681;SDS011;12802;53.390;-2.328;2024-03-06T03:26:51;34.17;;;18.35;;
24681;SDS011;12802;53.390;-2.328;2024-03-06T03:29:18;33.70;;;18.23;;
24681;SDS011;12802;53.390;-2.328;2024-03-06T03:31:44;28.23;;;16.88;;
24681;SDS011;12802;53.390;-2.328;2024-03-06T03:34:10;31.95;;;19.30;;
24681;SDS011;12802;53.390;-2.328;2024-03-06T03:36:40;31.75;;;19.42;;
24681;SDS011;12802;53.390;-2.328;2024-03-06T03:39:06;34.38;;;19.23;;
24681;SDS011;12802;53.390;-2.328;2024-03-06T03:41:43;27.40;;;16.67;;
24681;SDS011;12802;53.390;-2.328;2024-03-06T03:44:11;27.60;;;15.65;;
24681;SDS011;12802;53.390;-2.328;2024-03-06T03:46:37;30.27;;;17.02;;
24681;SDS011;12802;53.390;-2.328;2024-03-06T03:49:04;31.70;;;17.98;;
24681;SDS011;12802;53.390;-2.328;2024-03-06T03:51:30;34.45;;;19.55;;
24681;SDS011;12802;53.390;-2.328;2024-03-06T03:53:56;39.38;;;19.17;;
24681;SDS011;12802;53.390;-2.328;2024-03-06T03:56:22;38.63;;;19.98;;
24681;SDS011;12802;53.390;-2.328;2024-03-06T03:58:48;31.17;;;17.80;;
24681;SDS011;12802;53.390;-2.328;2024-03-06T04:01:14;31.40;;;17.90;;
24681;SDS011;12802;53.390;-2.328;2024-03-06T04:03:40;31.90;;;16.95;;
24681;SDS011;12802;53.390;-2.328;2024-03-06T04:06:07;30.13;;;17.35;;
24681;SDS011;12802;53.390;-2.328;2024-03-06T04:08:34;33.75;;;18.63;;
24681;SDS011;12802;53.390;-2.328;2024-03-06T04:11:00;43.67;;;20.48;;
24681;SDS011;12802;53.390;-2.328;2024-03-06T04:13:26;32.13;;;19.55;;
24681;SDS011;12802;53.390;-2.328;2024-03-06T04:15:52;28.85;;;18.02;;
24681;SDS011;12802;53.390;-2.328;2024-03-06T04:18:19;32.15;;;16.65;;
24681;SDS011;12802;53.390;-2.328;2024-03-06T04:20:45;31.23;;;17.52;;
24681;SDS011;12802;53.390;-2.328;2024-03-06T04:23:11;29.60;;;16.83;;
24681;SDS011;12802;53.390;-2.328;2024-03-06T04:25:37;36.15;;;18.27;;
24681;SDS011;12802;53.390;-2.328;2024-03-06T04:28:05;36.38;;;20.00;;
24681;SDS011;12802;53.390;-2.328;2024-03-06T04:30:34;36.33;;;19.33;;
24681;SDS011;12802;53.390;-2.328;2024-03-06T04:33:00;34.45;;;18.10;;
24681;SDS011;12802;53.390;-2.328;2024-03-06T04:35:26;34.50;;;18.42;;
24681;SDS011;12802;53.390;-2.328;2024-03-06T04:37:52;33.15;;;17.98;;
24681;SDS011;12802;53.390;-2.328;2024-03-06T04:40:19;40.13;;;20.02;;
24681;SDS011;12802;53.390;-2.328;2024-03-06T04:42:47;45.38;;;20.83;;
24681;SDS011;12802;53.390;-2.328;2024-03-06T04:45:17;34.88;;;18.65;;
24681;SDS011;12802;53.390;-2.328;2024-03-06T04:47:43;35.35;;;19.38;;
24681;SDS011;12802;53.390;-2.328;2024-03-06T04:50:09;32.25;;;19.10;;
24681;SDS011;12802;53.390;-2.328;2024-03-06T04:52:36;33.45;;;18.48;;
24681;SDS011;12802;53.390;-2.328;2024-03-06T04:55:03;37.85;;;19.92;;
24681;SDS011;12802;53.390;-2.328;2024-03-06T04:57:29;34.38;;;18.95;;
24681;SDS011;12802;53.390;-2.328;2024-03-06T04:59:55;32.55;;;19.27;;
24681;SDS011;12802;53.390;-2.328;2024-03-06T05:02:23;32.75;;;17.45;;
24681;SDS011;12802;53.390;-2.328;2024-03-06T05:04:51;31.48;;;17.50;;
24681;SDS011;12802;53.390;-2.328;2024-03-06T05:07:17;31.00;;;17.88;;
24681;SDS011;12802;53.390;-2.328;2024-03-06T05:09:44;29.20;;;18.15;;
24681;SDS011;12802;53.390;-2.328;2024-03-06T05:12:10;30.75;;;17.77;;
24681;SDS011;12802;53.390;-2.328;2024-03-06T05:14:36;33.58;;;18.27;;
24681;SDS011;12802;53.390;-2.328;2024-03-06T05:17:02;28.90;;;18.15;;
24681;SDS011;12802;53.390;-2.328;2024-03-06T05:19:28;35.45;;;19.38;;
24681;SDS011;12802;53.390;-2.328;2024-03-06T05:21:57;35.63;;;19.10;;
24681;SDS011;12802;53.390;-2.328;2024-03-06T05:24:24;38.15;;;20.55;;
24681;SDS011;12802;53.390;-2.328;2024-03-06T05:26:50;33.88;;;19.30;;
24681;SDS011;12802;53.390;-2.328;2024-03-06T05:29:16;33.10;;;20.30;;
24681;SDS011;12802;53.390;-2.328;2024-03-06T05:31:42;36.10;;;20.45;;
24681;SDS011;12802;53.390;-2.328;2024-03-06T05:34:08;35.08;;;18.65;;
24681;SDS011;12802;53.390;-2.328;2024-03-06T05:36:35;33.58;;;16.90;;
24681;SDS011;12802;53.390;-2.328;2024-03-06T05:39:01;31.95;;;18.45;;
24681;SDS011;12802;53.390;-2.328;2024-03-06T05:41:32;28.55;;;16.80;;
24681;SDS011;12802;53.390;-2.328;2024-03-06T05:43:58;32.38;;;17.90;;
24681;SDS011;12802;53.390;-2.328;2024-03-06T05:46:25;31.58;;;17.50;;
24681;SDS011;12802;53.390;-2.328;2024-03-06T05:48:51;30.23;;;16.00;;
24681;SDS011;12802;53.390;-2.328;2024-03-06T05:51:18;31.67;;;17.95;;
24681;SDS011;12802;53.390;-2.328;2024-03-06T05:53:44;30.88;;;19.25;;
24681;SDS011;12802;53.390;-2.328;2024-03-06T05:56:10;35.30;;;19.83;;
24681;SDS011;12802;53.390;-2.328;2024-03-06T05:58:36;36.15;;;19.10;;
24681;SDS011;12802;53.390;-2.328;2024-03-06T06:01:03;32.92;;;18.92;;
24681;SDS011;12802;53.390;-2.328;2024-03-06T06:03:29;35.70;;;18.15;;
24681;SDS011;12802;53.390;-2.328;2024-03-06T06:05:56;32.80;;;19.13;;
24681;SDS011;12802;53.390;-2.328;2024-03-06T06:08:22;39.05;;;20.92;;
24681;SDS011;12802;53.390;-2.328;2024-03-06T06:10:49;36.08;;;19.75;;
24681;SDS011;12802;53.390;-2.328;2024-03-06T06:13:20;36.65;;;20.48;;
24681;SDS011;12802;53.390;-2.328;2024-03-06T06:15:46;31.63;;;18.85;;
24681;SDS011;12802;53.390;-2.328;2024-03-06T06:18:12;42.75;;;21.10;;
24681;SDS011;12802;53.390;-2.328;2024-03-06T06:20:40;37.58;;;19.65;;
24681;SDS011;12802;53.390;-2.328;2024-03-06T06:23:07;43.80;;;22.07;;
24681;SDS011;12802;53.390;-2.328;2024-03-06T06:25:33;38.58;;;21.67;;
24681;SDS011;12802;53.390;-2.328;2024-03-06T06:28:00;42.95;;;21.45;;
24681;SDS011;12802;53.390;-2.328;2024-03-06T06:30:26;41.15;;;22.20;;
24681;SDS011;12802;53.390;-2.328;2024-03-06T06:32:52;42.85;;;21.80;;
24681;SDS011;12802;53.390;-2.328;2024-03-06T06:35:19;42.22;;;22.98;;
24681;SDS011;12802;53.390;-2.328;2024-03-06T06:37:45;38.38;;;21.23;;
24681;SDS011;12802;53.390;-2.328;2024-03-06T06:40:11;38.22;;;21.65;;
24681;SDS011;12802;53.390;-2.328;2024-03-06T06:42:43;41.83;;;22.38;;
24681;SDS011;12802;53.390;-2.328;2024-03-06T06:45:10;36.45;;;22.02;;
24681;SDS011;12802;53.390;-2.328;2024-03-06T06:47:36;39.40;;;21.02;;
24681;SDS011;12802;53.390;-2.328;2024-03-06T06:50:02;31.48;;;18.92;;
24681;SDS011;12802;53.390;-2.328;2024-03-06T06:52:30;36.88;;;19.67;;
24681;SDS011;12802;53.390;-2.328;2024-03-06T06:54:58;33.13;;;19.08;;
24681;SDS011;12802;53.390;-2.328;2024-03-06T06:57:25;32.20;;;19.55;;
24681;SDS011;12802;53.390;-2.328;2024-03-06T06:59:51;36.80;;;21.30;;
24681;SDS011;12802;53.390;-2.328;2024-03-06T07:02:17;40.92;;;21.55;;
24681;SDS011;12802;53.390;-2.328;2024-03-06T07:04:44;42.83;;;20.88;;
24681;SDS011;12802;53.390;-2.328;2024-03-06T07:07:10;37.08;;;21.58;;
24681;SDS011;12802;53.390;-2.328;2024-03-06T07:09:36;37.58;;;20.45;;
24681;SDS011;12802;53.390;-2.328;2024-03-06T07:12:02;38.22;;;20.05;;
24681;SDS011;12802;53.390;-2.328;2024-03-06T07:14:28;37.30;;;21.40;;
24681;SDS011;12802;53.390;-2.328;2024-03-06T07:16:54;42.92;;;23.17;;
24681;SDS011;12802;53.390;-2.328;2024-03-06T07:19:21;39.58;;;23.02;;
24681;SDS011;12802;53.390;-2.328;2024-03-06T07:21:47;39.10;;;23.13;;
24681;SDS011;12802;53.390;-2.328;2024-03-06T07:24:13;37.67;;;22.17;;
24681;SDS011;12802;53.390;-2.328;2024-03-06T07:26:39;35.80;;;20.40;;
24681;SDS011;12802;53.390;-2.328;2024-03-06T07:29:05;38.70;;;21.77;;
24681;SDS011;12802;53.390;-2.328;2024-03-06T07:31:38;41.33;;;21.98;;
24681;SDS011;12802;53.390;-2.328;2024-03-06T07:34:04;45.83;;;23.00;;
24681;SDS011;12802;53.390;-2.328;2024-03-06T07:36:34;40.47;;;24.53;;
24681;SDS011;12802;53.390;-2.328;2024-03-06T07:39:00;41.55;;;24.13;;
24681;SDS011;12802;53.390;-2.328;2024-03-06T07:41:27;42.83;;;24.17;;
24681;SDS011;12802;53.390;-2.328;2024-03-06T07:43:53;48.13;;;24.35;;
24681;SDS011;12802;53.390;-2.328;2024-03-06T07:46:19;38.42;;;22.83;;
24681;SDS011;12802;53.390;-2.328;2024-03-06T07:48:45;41.80;;;23.90;;
24681;SDS011;12802;53.390;-2.328;2024-03-06T07:51:11;43.35;;;23.40;;
24681;SDS011;12802;53.390;-2.328;2024-03-06T07:53:37;37.10;;;22.20;;
24681;SDS011;12802;53.390;-2.328;2024-03-06T07:56:04;41.28;;;21.88;;
24681;SDS011;12802;53.390;-2.328;2024-03-06T07:58:30;40.60;;;23.30;;
24681;SDS011;12802;53.390;-2.328;2024-03-06T08:00:56;40.28;;;23.17;;
24681;SDS011;12802;53.390;-2.328;2024-03-06T08:03:22;43.75;;;24.35;;
24681;SDS011;12802;53.390;-2.328;2024-03-06T08:05:52;43.78;;;25.00;;
24681;SDS011;12802;53.390;-2.328;2024-03-06T08:08:18;42.97;;;24.70;;
24681;SDS011;12802;53.390;-2.328;2024-03-06T08:10:45;43.88;;;24.85;;
24681;SDS011;12802;53.390;-2.328;2024-03-06T08:13:11;49.17;;;26.58;;
24681;SDS011;12802;53.390;-2.328;2024-03-06T08:15:37;53.38;;;28.02;;
24681;SDS011;12802;53.390;-2.328;2024-03-06T08:18:05;48.75;;;28.50;;
24681;SDS011;12802;53.390;-2.328;2024-03-06T08:20:31;68.10;;;34.75;;
24681;SDS011;12802;53.390;-2.328;2024-03-06T08:22:58;69.05;;;33.75;;
24681;SDS011;12802;53.390;-2.328;2024-03-06T08:25:24;76.55;;;35.85;;
24681;SDS011;12802;53.390;-2.328;2024-03-06T08:27:50;77.32;;;36.28;;
24681;SDS011;12802;53.390;-2.328;2024-03-06T08:30:16;76.22;;;35.67;;
24681;SDS011;12802;53.390;-2.328;2024-03-06T08:32:42;76.65;;;34.78;;
24681;SDS011;12802;53.390;-2.328;2024-03-06T08:35:12;75.32;;;36.30;;
24681;SDS011;12802;53.390;-2.328;2024-03-06T08:37:39;69.00;;;33.17;;
24681;SDS011;12802;53.390;-2.328;2024-03-06T08:40:06;76.03;;;34.97;;
24681;SDS011;12802;53.390;-2.328;2024-03-06T08:42:40;69.55;;;34.05;;
24681;SDS011;12802;53.390;-2.328;2024-03-06T08:45:07;67.85;;;33.97;;
24681;SDS011;12802;53.390;-2.328;2024-03-06T08:47:34;75.10;;;34.95;;
24681;SDS011;12802;53.390;-2.328;2024-03-06T08:50:01;80.75;;;35.58;;
24681;SDS011;12802;53.390;-2.328;2024-03-06T08:52:28;72.40;;;34.85;;
24681;SDS011;12802;53.390;-2.328;2024-03-06T08:54:54;71.30;;;32.70;;
24681;SDS011;12802;53.390;-2.328;2024-03-06T08:57:20;69.90;;;34.25;;
24681;SDS011;12802;53.390;-2.328;2024-03-06T08:59:47;63.17;;;32.05;;
24681;SDS011;12802;53.390;-2.328;2024-03-06T09:04:40;59.97;;;30.23;;
24681;SDS011;12802;53.390;-2.328;2024-03-06T09:07:06;54.90;;;28.05;;
24681;SDS011;12802;53.390;-2.328;2024-03-06T09:09:33;52.05;;;27.00;;
24681;SDS011;12802;53.390;-2.328;2024-03-06T09:12:00;53.10;;;28.50;;
24681;SDS011;12802;53.390;-2.328;2024-03-06T09:14:26;58.20;;;29.55;;
24681;SDS011;12802;53.390;-2.328;2024-03-06T09:16:52;56.38;;;27.88;;
24681;SDS011;12802;53.390;-2.328;2024-03-06T09:19:19;54.63;;;28.98;;
24681;SDS011;12802;53.390;-2.328;2024-03-06T09:21:45;51.67;;;27.92;;
24681;SDS011;12802;53.390;-2.328;2024-03-06T09:24:13;51.85;;;26.75;;
24681;SDS011;12802;53.390;-2.328;2024-03-06T09:26:39;43.20;;;24.10;;
24681;SDS011;12802;53.390;-2.328;2024-03-06T09:29:05;45.30;;;24.95;;
24681;SDS011;12802;53.390;-2.328;2024-03-06T09:31:31;47.33;;;26.90;;
24681;SDS011;12802;53.390;-2.328;2024-03-06T09:33:57;45.88;;;25.70;;
24681;SDS011;12802;53.390;-2.328;2024-03-06T09:36:24;48.45;;;25.17;;
24681;SDS011;12802;53.390;-2.328;2024-03-06T09:38:50;47.70;;;25.83;;
24681;SDS011;12802;53.390;-2.328;2024-03-06T09:41:17;44.35;;;23.60;;
24681;SDS011;12802;53.390;-2.328;2024-03-06T09:43:44;45.63;;;24.75;;
24681;SDS011;12802;53.390;-2.328;2024-03-06T09:46:10;42.60;;;24.20;;
24681;SDS011;12802;53.390;-2.328;2024-03-06T09:48:36;44.58;;;23.27;;
24681;SDS011;12802;53.390;-2.328;2024-03-06T09:51:07;43.05;;;23.42;;
24681;SDS011;12802;53.390;-2.328;2024-03-06T09:53:33;41.42;;;22.80;;
24681;SDS011;12802;53.390;-2.328;2024-03-06T09:55:59;43.58;;;23.65;;
24681;SDS011;12802;53.390;-2.328;2024-03-06T09:58:26;39.72;;;22.67;;
24681;SDS011;12802;53.390;-2.328;2024-03-06T10:00:53;40.20;;;22.48;;
24681;SDS011;12802;53.390;-2.328;2024-03-06T10:03:19;37.03;;;21.00;;
24681;SDS011;12802;53.390;-2.328;2024-03-06T10:05:45;40.33;;;21.45;;
24681;SDS011;12802;53.390;-2.328;2024-03-06T10:08:11;37.20;;;21.38;;
24681;SDS011;12802;53.390;-2.328;2024-03-06T10:10:41;33.03;;;18.60;;
24681;SDS011;12802;53.390;-2.328;2024-03-06T10:13:08;29.35;;;18.08;;
24681;SDS011;12802;53.390;-2.328;2024-03-06T10:15:34;29.92;;;17.38;;
24681;SDS011;12802;53.390;-2.328;2024-03-06T10:18:14;29.20;;;18.35;;
24681;SDS011;12802;53.390;-2.328;2024-03-06T10:20:43;33.80;;;18.15;;
24681;SDS011;12802;53.390;-2.328;2024-03-06T10:23:09;28.63;;;17.35;;
24681;SDS011;12802;53.390;-2.328;2024-03-06T10:25:35;32.28;;;18.00;;
24681;SDS011;12802;53.390;-2.328;2024-03-06T10:28:06;34.63;;;18.73;;
24681;SDS011;12802;53.390;-2.328;2024-03-06T10:30:33;28.67;;;17.33;;
24681;SDS011;12802;53.390;-2.328;2024-03-06T10:33:01;36.80;;;18.33;;
24681;SDS011;12802;53.390;-2.328;2024-03-06T10:35:28;32.45;;;18.38;;
24681;SDS011;12802;53.390;-2.328;2024-03-06T10:37:54;34.45;;;20.23;;
24681;SDS011;12802;53.390;-2.328;2024-03-06T10:40:21;36.03;;;18.85;;
24681;SDS011;12802;53.390;-2.328;2024-03-06T10:42:48;29.50;;;18.63;;
24681;SDS011;12802;53.390;-2.328;2024-03-06T10:45:15;26.27;;;16.42;;
24681;SDS011;12802;53.390;-2.328;2024-03-06T10:47:45;35.08;;;19.77;;
24681;SDS011;12802;53.390;-2.328;2024-03-06T10:50:15;28.50;;;17.15;;
24681;SDS011;12802;53.390;-2.328;2024-03-06T10:52:41;31.38;;;17.90;;
24681;SDS011;12802;53.390;-2.328;2024-03-06T10:55:08;31.15;;;19.08;;
24681;SDS011;12802;53.390;-2.328;2024-03-06T10:57:36;34.25;;;18.98;;
24681;SDS011;12802;53.390;-2.328;2024-03-06T11:00:03;34.45;;;18.55;;
24681;SDS011;12802;53.390;-2.328;2024-03-06T11:02:30;35.40;;;19.17;;
24681;SDS011;12802;53.390;-2.328;2024-03-06T11:04:57;32.05;;;19.40;;
24681;SDS011;12802;53.390;-2.328;2024-03-06T11:07:24;30.52;;;19.00;;
24681;SDS011;12802;53.390;-2.328;2024-03-06T11:09:50;34.38;;;18.77;;
24681;SDS011;12802;53.390;-2.328;2024-03-06T11:12:32;31.90;;;18.63;;
24681;SDS011;12802;53.390;-2.328;2024-03-06T11:14:58;34.90;;;19.83;;
24681;SDS011;12802;53.390;-2.328;2024-03-06T11:17:26;35.20;;;19.20;;
24681;SDS011;12802;53.390;-2.328;2024-03-06T11:25:43;31.67;;;18.90;;
24681;SDS011;12802;53.390;-2.328;2024-03-06T11:28:02;38.00;;;19.23;;
24681;SDS011;12802;53.390;-2.328;2024-03-06T11:30:28;32.50;;;18.23;;
24681;SDS011;12802;53.390;-2.328;2024-03-06T11:33:00;29.48;;;18.83;;
24681;SDS011;12802;53.390;-2.328;2024-03-06T11:35:29;34.10;;;18.80;;
24681;SDS011;12802;53.390;-2.328;2024-03-06T11:37:56;33.38;;;19.98;;
24681;SDS011;12802;53.390;-2.328;2024-03-06T11:40:25;29.83;;;18.92;;
24681;SDS011;12802;53.390;-2.328;2024-03-06T11:42:52;30.67;;;18.48;;
24681;SDS011;12802;53.390;-2.328;2024-03-06T11:45:18;35.33;;;19.08;;
24681;SDS011;12802;53.390;-2.328;2024-03-06T11:48:02;32.50;;;19.23;;
24681;SDS011;12802;53.390;-2.328;2024-03-06T11:50:28;31.38;;;18.85;;
24681;SDS011;12802;53.390;-2.328;2024-03-06T11:55:24;30.15;;;18.05;;
24681;SDS011;12802;53.390;-2.328;2024-03-06T11:57:51;31.08;;;17.05;;
24681;SDS011;12802;53.390;-2.328;2024-03-06T12:00:20;35.63;;;18.60;;
24681;SDS011;12802;53.390;-2.328;2024-03-06T12:02:47;31.58;;;18.00;;
24681;SDS011;12802;53.390;-2.328;2024-03-06T12:05:13;28.23;;;17.00;;
24681;SDS011;12802;53.390;-2.328;2024-03-06T12:07:51;31.05;;;18.20;;
24681;SDS011;12802;53.390;-2.328;2024-03-06T12:10:18;28.08;;;17.88;;
24681;SDS011;12802;53.390;-2.328;2024-03-06T12:12:44;28.25;;;16.55;;
24681;SDS011;12802;53.390;-2.328;2024-03-06T12:15:11;30.42;;;16.50;;
24681;SDS011;12802;53.390;-2.328;2024-03-06T12:17:47;25.77;;;16.25;;
24681;SDS011;12802;53.390;-2.328;2024-03-06T12:20:16;26.05;;;15.27;;
24681;SDS011;12802;53.390;-2.328;2024-03-06T12:22:48;29.20;;;15.88;;
24681;SDS011;12802;53.390;-2.328;2024-03-06T12:25:18;29.52;;;16.35;;
24681;SDS011;12802;53.390;-2.328;2024-03-06T12:27:47;26.83;;;16.73;;
24681;SDS011;12802;53.390;-2.328;2024-03-06T12:30:17;27.17;;;15.13;;
24681;SDS011;12802;53.390;-2.328;2024-03-06T12:32:44;28.60;;;16.70;;
24681;SDS011;12802;53.390;-2.328;2024-03-06T12:35:10;29.25;;;16.95;;
24681;SDS011;12802;53.390;-2.328;2024-03-06T12:37:36;27.33;;;17.17;;
24681;SDS011;12802;53.390;-2.328;2024-03-06T12:40:02;29.05;;;16.52;;
24681;SDS011;12802;53.390;-2.328;2024-03-06T12:42:30;26.05;;;15.98;;
24681;SDS011;12802;53.390;-2.328;2024-03-06T12:44:56;26.27;;;15.82;;
24681;SDS011;12802;53.390;-2.328;2024-03-06T12:47:22;25.90;;;15.45;;
24681;SDS011;12802;53.390;-2.328;2024-03-06T12:49:48;29.35;;;16.10;;
24681;SDS011;12802;53.390;-2.328;2024-03-06T12:52:16;26.60;;;16.58;;
24681;SDS011;12802;53.390;-2.328;2024-03-06T12:54:42;27.00;;;16.17;;
24681;SDS011;12802;53.390;-2.328;2024-03-06T12:57:08;26.10;;;16.13;;
24681;SDS011;12802;53.390;-2.328;2024-03-06T12:59:34;27.55;;;15.45;;
24681;SDS011;12802;53.390;-2.328;2024-03-06T13:02:00;24.45;;;15.27;;
24681;SDS011;12802;53.390;-2.328;2024-03-06T13:04:26;25.52;;;15.07;;
24681;SDS011;12802;53.390;-2.328;2024-03-06T13:06:53;30.52;;;15.27;;
24681;SDS011;12802;53.390;-2.328;2024-03-06T13:09:19;27.60;;;15.88;;
24681;SDS011;12802;53.390;-2.328;2024-03-06T13:11:45;27.77;;;14.77;;
24681;SDS011;12802;53.390;-2.328;2024-03-06T13:14:11;23.13;;;14.52;;
24681;SDS011;12802;53.390;-2.328;2024-03-06T13:16:37;27.27;;;15.00;;
24681;SDS011;12802;53.390;-2.328;2024-03-06T13:19:03;24.73;;;16.13;;
24681;SDS011;12802;53.390;-2.328;2024-03-06T13:21:29;29.13;;;17.90;;
24681;SDS011;12802;53.390;-2.328;2024-03-06T13:23:55;32.58;;;19.00;;
24681;SDS011;12802;53.390;-2.328;2024-03-06T13:26:21;27.63;;;16.67;;
24681;SDS011;12802;53.390;-2.328;2024-03-06T13:28:47;25.38;;;16.10;;
24681;SDS011;12802;53.390;-2.328;2024-03-06T13:31:14;23.92;;;14.65;;
24681;SDS011;12802;53.390;-2.328;2024-03-06T13:33:40;23.90;;;14.35;;
24681;SDS011;12802;53.390;-2.328;2024-03-06T13:36:06;26.25;;;15.05;;
24681;SDS011;12802;53.390;-2.328;2024-03-06T13:38:33;29.15;;;15.35;;
24681;SDS011;12802;53.390;-2.328;2024-03-06T13:40:59;25.67;;;15.50;;
24681;SDS011;12802;53.390;-2.328;2024-03-06T13:43:27;26.33;;;16.48;;
24681;SDS011;12802;53.390;-2.328;2024-03-06T13:45:54;29.20;;;16.13;;
24681;SDS011;12802;53.390;-2.328;2024-03-06T13:48:20;31.17;;;16.70;;
24681;SDS011;12802;53.390;-2.328;2024-03-06T13:50:47;28.83;;;17.20;;
24681;SDS011;12802;53.390;-2.328;2024-03-06T13:53:14;28.85;;;15.48;;
24681;SDS011;12802;53.390;-2.328;2024-03-06T13:55:40;30.63;;;16.95;;
24681;SDS011;12802;53.390;-2.328;2024-03-06T13:58:07;27.40;;;16.00;;
24681;SDS011;12802;53.390;-2.328;2024-03-06T14:00:33;26.73;;;15.70;;
24681;SDS011;12802;53.390;-2.328;2024-03-06T14:03:00;28.75;;;16.20;;
24681;SDS011;12802;53.390;-2.328;2024-03-06T14:05:26;24.90;;;15.82;;
24681;SDS011;12802;53.390;-2.328;2024-03-06T14:07:53;27.80;;;15.63;;
24681;SDS011;12802;53.390;-2.328;2024-03-06T14:10:20;25.05;;;14.82;;
24681;SDS011;12802;53.390;-2.328;2024-03-06T14:12:48;25.98;;;15.75;;
24681;SDS011;12802;53.390;-2.328;2024-03-06T14:15:18;25.35;;;15.88;;
24681;SDS011;12802;53.390;-2.328;2024-03-06T14:17:44;25.42;;;15.45;;